createdAt,value
2018-11-25T00:00:16.408Z,17.10
2018-11-25T00:01:16.404Z,17.00
2018-11-25T00:02:16.782Z,17.30
2018-11-25T00:03:16.669Z,18.60
2018-11-25T00:04:16.366Z,18.70
2018-11-25T00:05:16.386Z,20.30
2018-11-25T00:06:16.328Z,19.10
2018-11-25T00:07:16.321Z,20.10
2018-11-25T00:08:16.386Z,18.00
2018-11-25T00:09:16.601Z,16.40
2018-11-25T00:10:16.271Z,17.00
2018-11-25T00:11:16.263Z,17.10
2018-11-25T00:12:16.261Z,16.30
2018-11-25T00:13:16.265Z,15.40
2018-11-25T00:14:16.777Z,15.30
2018-11-25T00:15:16.220Z,15.60
2018-11-25T00:16:16.208Z,15.10
2018-11-25T00:17:16.210Z,15.10
2018-11-25T00:18:16.195Z,15.40
2018-11-25T00:19:16.205Z,16.10
2018-11-25T00:20:16.166Z,17.90
2018-11-25T00:21:16.187Z,17.10
2018-11-25T00:22:16.221Z,17.40
2018-11-25T00:23:16.130Z,16.30
2018-11-25T00:24:16.161Z,16.60
2018-11-25T00:25:16.108Z,15.80
2018-11-25T00:26:16.099Z,16.10
2018-11-25T00:27:16.123Z,16.00
2018-11-25T00:28:16.076Z,16.10
2018-11-25T00:29:16.095Z,16.20
2018-11-25T00:30:16.073Z,16.80
2018-11-25T00:31:16.090Z,17.20
2018-11-25T00:32:16.033Z,18.30
2018-11-25T00:33:16.042Z,17.60
2018-11-25T00:34:16.031Z,18.20
2018-11-25T00:35:16.049Z,17.60
2018-11-25T00:36:16.004Z,17.90
2018-11-25T00:37:15.981Z,19.50
2018-11-25T00:38:15.969Z,21.50
2018-11-25T00:39:16.015Z,22.70
2018-11-25T00:40:16.269Z,19.50
2018-11-25T00:41:15.938Z,17.80
2018-11-25T00:42:15.930Z,16.90
2018-11-25T00:43:15.915Z,17.10
2018-11-25T00:44:15.938Z,17.20
2018-11-25T00:45:15.900Z,17.40
2018-11-25T00:46:15.911Z,18.10
2018-11-25T00:47:15.874Z,16.60
2018-11-25T00:48:16.037Z,16.30
2018-11-25T00:49:15.881Z,17.20
2018-11-25T00:50:15.839Z,17.30
2018-11-25T00:51:15.832Z,17.20
2018-11-25T00:52:15.829Z,17.40
2018-11-25T00:53:15.937Z,17.50
2018-11-25T00:54:15.819Z,17.60
2018-11-25T00:55:15.828Z,16.90
2018-11-25T00:56:15.783Z,16.90
2018-11-25T00:57:15.764Z,16.60
2018-11-25T00:58:15.757Z,17.30
2018-11-25T00:59:15.798Z,17.50
2018-11-25T01:00:15.848Z,18.30
2018-11-25T01:01:15.769Z,19.20
2018-11-25T01:02:15.755Z,19.30
2018-11-25T01:03:15.707Z,20.20
2018-11-25T01:04:15.715Z,18.30
2018-11-25T01:05:15.739Z,16.40
2018-11-25T01:06:15.696Z,17.90
2018-11-25T01:07:15.684Z,18.40
2018-11-25T01:08:15.715Z,17.70
2018-11-25T01:09:15.663Z,16.90
2018-11-25T01:10:15.662Z,16.30
2018-11-25T01:11:15.638Z,16.30
2018-11-25T01:12:15.630Z,15.90
2018-11-25T01:13:15.635Z,16.80
2018-11-25T01:14:15.612Z,16.50
2018-11-25T01:15:15.620Z,14.80
2018-11-25T01:16:15.587Z,15.60
2018-11-25T01:17:15.550Z,15.30
2018-11-25T01:18:15.583Z,14.80
2018-11-25T01:19:15.551Z,15.50
2018-11-25T01:20:15.518Z,14.50
2018-11-25T01:21:15.563Z,14.10
2018-11-25T01:22:15.497Z,14.00
2018-11-25T01:23:23.075Z,14.90
2018-11-25T01:24:25.206Z,14.50
2018-11-25T01:25:15.503Z,15.20
2018-11-25T01:26:15.453Z,14.70
2018-11-25T01:27:15.464Z,14.40
2018-11-25T01:28:15.485Z,15.40
2018-11-25T01:29:15.441Z,15.30
2018-11-25T01:30:15.442Z,15.20
2018-11-25T01:31:15.452Z,15.00
2018-11-25T01:32:15.432Z,15.40
2018-11-25T01:33:15.464Z,15.20
2018-11-25T01:34:15.402Z,15.00
2018-11-25T01:35:15.375Z,15.10
2018-11-25T01:36:15.383Z,14.90
2018-11-25T01:37:15.337Z,15.20
2018-11-25T01:38:15.378Z,14.70
2018-11-25T01:39:15.353Z,15.50
2018-11-25T01:40:15.344Z,15.40
2018-11-25T01:41:15.323Z,15.00
2018-11-25T01:42:22.841Z,15.20
2018-11-25T01:43:15.274Z,15.80
2018-11-25T01:44:15.260Z,16.00
2018-11-25T01:45:15.270Z,15.70
2018-11-25T01:46:15.236Z,16.00
2018-11-25T01:47:15.225Z,16.60
2018-11-25T01:48:15.218Z,17.20
2018-11-25T01:49:15.216Z,16.70
2018-11-25T01:50:15.217Z,17.00
2018-11-25T01:51:15.188Z,16.60
2018-11-25T01:52:15.174Z,16.30
2018-11-25T01:53:15.171Z,16.80
2018-11-25T01:54:15.152Z,17.20
2018-11-25T01:55:15.156Z,17.20
2018-11-25T01:56:15.124Z,16.50
2018-11-25T01:57:15.114Z,16.30
2018-11-25T01:58:15.120Z,17.40
2018-11-25T01:59:15.091Z,17.00
2018-11-25T02:00:15.102Z,16.20
2018-11-25T02:01:15.071Z,16.40
2018-11-25T02:02:15.059Z,17.20
2018-11-25T02:03:15.048Z,17.50
2018-11-25T02:04:15.092Z,17.30
2018-11-25T02:05:15.048Z,16.80
2018-11-25T02:06:15.016Z,16.90
2018-11-25T02:07:15.005Z,16.50
2018-11-25T02:08:14.995Z,16.60
2018-11-25T02:09:14.985Z,16.80
2018-11-25T02:10:15.020Z,17.00
2018-11-25T02:11:15.044Z,16.80
2018-11-25T02:12:14.965Z,16.80
2018-11-25T02:13:14.941Z,16.80
2018-11-25T02:14:14.939Z,17.80
2018-11-25T02:15:14.924Z,16.70
2018-11-25T02:16:14.930Z,17.30
2018-11-25T02:17:14.905Z,16.70
2018-11-25T02:18:14.890Z,16.30
2018-11-25T02:19:14.878Z,16.20
2018-11-25T02:20:14.868Z,16.00
2018-11-25T02:21:14.876Z,15.00
2018-11-25T02:22:14.858Z,15.40
2018-11-25T02:23:14.834Z,15.50
2018-11-25T02:24:14.825Z,15.70
2018-11-25T02:25:14.858Z,15.00
2018-11-25T02:26:14.801Z,15.90
2018-11-25T02:27:14.796Z,15.00
2018-11-25T02:28:14.783Z,14.50
2018-11-25T02:29:14.775Z,14.70
2018-11-25T02:30:14.762Z,14.50
2018-11-25T02:31:14.783Z,14.50
2018-11-25T02:32:14.736Z,14.80
2018-11-25T02:33:14.731Z,15.00
2018-11-25T02:34:14.715Z,13.70
2018-11-25T02:35:14.732Z,14.80
2018-11-25T02:36:14.697Z,14.80
2018-11-25T02:37:14.692Z,14.30
2018-11-25T02:38:14.677Z,14.70
2018-11-25T02:39:14.663Z,14.70
2018-11-25T02:40:14.655Z,15.30
2018-11-25T02:41:14.658Z,14.60
2018-11-25T02:42:14.629Z,15.90
2018-11-25T02:43:14.621Z,14.90
2018-11-25T02:44:14.616Z,15.70
2018-11-25T02:45:14.625Z,15.90
2018-11-25T02:46:14.590Z,16.30
2018-11-25T02:47:14.576Z,16.40
2018-11-25T02:48:14.567Z,16.00
2018-11-25T02:49:14.556Z,15.40
2018-11-25T02:50:14.569Z,16.50
2018-11-25T02:51:14.540Z,15.60
2018-11-25T02:52:14.528Z,15.40
2018-11-25T02:53:14.512Z,15.50
2018-11-25T02:54:14.502Z,15.20
2018-11-25T02:55:14.490Z,15.50
2018-11-25T02:56:14.499Z,15.30
2018-11-25T02:57:14.506Z,14.40
2018-11-25T02:58:14.459Z,15.50
2018-11-25T02:59:14.447Z,14.80
2018-11-25T03:00:14.438Z,14.20
2018-11-25T03:01:14.446Z,14.10
2018-11-25T03:02:14.414Z,15.10
2018-11-25T03:03:14.414Z,14.10
2018-11-25T03:04:14.394Z,14.70
2018-11-25T03:05:14.389Z,13.80
2018-11-25T03:06:14.391Z,14.50
2018-11-25T03:07:14.365Z,14.20
2018-11-25T03:08:14.351Z,14.70
2018-11-25T03:09:14.344Z,14.10
2018-11-25T03:10:14.329Z,13.50
2018-11-25T03:11:14.338Z,14.20
2018-11-25T03:12:14.307Z,14.70
2018-11-25T03:13:14.297Z,13.40
2018-11-25T03:14:14.287Z,13.50
2018-11-25T03:15:14.283Z,13.50
2018-11-25T03:16:14.291Z,13.80
2018-11-25T03:17:14.253Z,14.00
2018-11-25T03:18:14.242Z,14.00
2018-11-25T03:19:14.241Z,14.40
2018-11-25T03:20:14.222Z,13.80
2018-11-25T03:21:14.237Z,14.20
2018-11-25T03:22:14.211Z,13.30
2018-11-25T03:23:14.189Z,13.70
2018-11-25T03:24:14.185Z,13.90
2018-11-25T03:25:14.170Z,13.40
2018-11-25T03:26:14.180Z,14.30
2018-11-25T03:27:14.145Z,14.80
2018-11-25T03:28:14.143Z,14.30
2018-11-25T03:29:14.124Z,14.00
2018-11-25T03:30:14.113Z,14.20
2018-11-25T03:31:14.122Z,15.30
2018-11-25T03:32:14.093Z,14.30
2018-11-25T03:33:14.094Z,14.40
2018-11-25T03:34:14.079Z,14.80
2018-11-25T03:35:14.060Z,14.50
2018-11-25T03:36:14.068Z,15.70
2018-11-25T03:37:14.037Z,14.00
2018-11-25T03:38:14.029Z,15.40
2018-11-25T03:39:14.028Z,13.70
2018-11-25T03:40:14.013Z,14.20
2018-11-25T03:41:14.014Z,13.90
2018-11-25T03:42:13.987Z,14.90
2018-11-25T03:43:13.973Z,14.40
2018-11-25T03:44:13.963Z,14.80
2018-11-25T03:45:13.954Z,14.20
2018-11-25T03:46:13.969Z,13.80
2018-11-25T03:47:13.934Z,14.50
2018-11-25T03:48:13.932Z,14.10
2018-11-25T03:49:13.908Z,13.90
2018-11-25T03:50:13.899Z,14.60
2018-11-25T03:51:13.914Z,14.90
2018-11-25T03:52:13.880Z,15.10
2018-11-25T03:53:13.867Z,15.10
2018-11-25T03:54:13.858Z,13.80
2018-11-25T03:55:13.854Z,14.60
2018-11-25T03:56:13.835Z,14.30
2018-11-25T03:57:13.845Z,14.50
2018-11-25T03:58:13.813Z,15.10
2018-11-25T03:59:13.803Z,14.40
2018-11-25T04:00:13.790Z,14.00
2018-11-25T04:01:13.785Z,13.50
2018-11-25T04:02:13.794Z,13.90
2018-11-25T04:03:13.763Z,14.80
2018-11-25T04:04:13.755Z,15.10
2018-11-25T04:05:13.740Z,14.80
2018-11-25T04:06:13.729Z,14.40
2018-11-25T04:07:13.746Z,15.20
2018-11-25T04:08:13.708Z,15.00
2018-11-25T04:09:13.694Z,15.00
2018-11-25T04:10:13.688Z,14.50
2018-11-25T04:11:13.685Z,15.00
2018-11-25T04:12:13.689Z,15.60
2018-11-25T04:13:13.655Z,14.70
2018-11-25T04:14:13.640Z,14.60
2018-11-25T04:15:13.631Z,14.80
2018-11-25T04:16:13.623Z,14.10
2018-11-25T04:17:13.634Z,14.70
2018-11-25T04:18:13.604Z,13.50
2018-11-25T04:19:13.595Z,14.00
2018-11-25T04:20:13.579Z,13.60
2018-11-25T04:21:13.567Z,13.20
2018-11-25T04:22:13.556Z,13.50
2018-11-25T04:23:13.566Z,14.00
2018-11-25T04:24:13.534Z,13.70
2018-11-25T04:25:13.527Z,13.60
2018-11-25T04:26:13.522Z,13.60
2018-11-25T04:27:13.525Z,14.00
2018-11-25T04:28:13.492Z,13.80
2018-11-25T04:29:13.479Z,14.40
2018-11-25T04:30:13.470Z,13.50
2018-11-25T04:31:13.458Z,13.90
2018-11-25T04:32:13.474Z,14.10
2018-11-25T04:33:13.435Z,14.00
2018-11-25T04:34:13.447Z,13.90
2018-11-25T04:35:13.417Z,13.30
2018-11-25T04:36:13.407Z,14.60
2018-11-25T04:37:13.433Z,14.50
2018-11-25T04:38:13.388Z,15.10
2018-11-25T04:39:13.375Z,14.50
2018-11-25T04:40:13.417Z,14.70
2018-11-25T04:41:13.357Z,14.80
2018-11-25T04:42:13.338Z,15.40
2018-11-25T04:43:13.349Z,14.60
2018-11-25T04:44:13.318Z,14.50
2018-11-25T04:45:13.308Z,14.10
2018-11-25T04:46:13.303Z,14.10
2018-11-25T04:47:13.289Z,13.50
2018-11-25T04:48:13.300Z,13.10
2018-11-25T04:49:13.270Z,13.50
2018-11-25T04:50:13.254Z,14.50
2018-11-25T04:51:13.244Z,13.80
2018-11-25T04:52:13.234Z,13.90
2018-11-25T04:53:13.243Z,13.80
2018-11-25T04:54:13.215Z,13.70
2018-11-25T04:55:13.216Z,13.10
2018-11-25T04:56:13.190Z,13.20
2018-11-25T04:57:13.187Z,14.20
2018-11-25T04:58:13.204Z,13.20
2018-11-25T04:59:13.159Z,12.90
2018-11-25T05:00:13.147Z,13.40
2018-11-25T05:01:13.144Z,13.10
2018-11-25T05:02:20.719Z,13.50
2018-11-25T05:03:13.142Z,15.30
2018-11-25T05:04:13.105Z,15.00
2018-11-25T05:05:13.097Z,14.80
2018-11-25T05:06:13.087Z,16.30
2018-11-25T05:07:13.081Z,15.60
2018-11-25T05:08:13.084Z,16.40
2018-11-25T05:09:13.060Z,16.10
2018-11-25T05:10:13.040Z,16.80
2018-11-25T05:11:13.030Z,15.80
2018-11-25T05:12:13.019Z,16.60
2018-11-25T05:13:13.019Z,17.30
2018-11-25T05:14:13.015Z,17.00
2018-11-25T05:15:12.991Z,16.90
2018-11-25T05:16:12.988Z,17.20
2018-11-25T05:17:12.969Z,18.10
2018-11-25T05:18:12.959Z,18.00
2018-11-25T05:19:12.966Z,18.90
2018-11-25T05:20:12.938Z,18.60
2018-11-25T05:21:12.921Z,19.10
2018-11-25T05:22:12.915Z,19.30
2018-11-25T05:23:12.903Z,19.10
2018-11-25T05:24:12.910Z,18.80
2018-11-25T05:25:12.886Z,19.30
2018-11-25T05:26:12.866Z,19.10
2018-11-25T05:27:12.856Z,19.90
2018-11-25T05:28:12.848Z,20.10
2018-11-25T05:29:12.861Z,19.40
2018-11-25T05:30:12.832Z,19.90
2018-11-25T05:31:12.815Z,20.60
2018-11-25T05:32:12.805Z,20.10
2018-11-25T05:33:12.799Z,19.80
2018-11-25T05:34:12.785Z,20.40
2018-11-25T05:35:12.791Z,21.50
2018-11-25T05:36:12.768Z,21.50
2018-11-25T05:37:12.751Z,20.70
2018-11-25T05:38:12.740Z,20.80
2018-11-25T05:39:12.727Z,21.30
2018-11-25T05:40:12.737Z,20.90
2018-11-25T05:41:12.705Z,22.00
2018-11-25T05:42:12.693Z,20.80
2018-11-25T05:43:12.693Z,22.20
2018-11-25T05:44:12.672Z,21.10
2018-11-25T05:45:12.683Z,21.60
2018-11-25T05:46:12.682Z,22.40
2018-11-25T05:47:12.646Z,21.90
2018-11-25T05:48:12.636Z,22.80
2018-11-25T05:49:12.620Z,21.10
2018-11-25T05:50:12.656Z,21.80
2018-11-25T05:51:12.603Z,21.60
2018-11-25T05:52:12.584Z,21.80
2018-11-25T05:53:12.579Z,22.20
2018-11-25T05:54:12.570Z,21.50
2018-11-25T05:55:12.609Z,21.10
2018-11-25T05:56:12.569Z,21.60
2018-11-25T05:57:12.533Z,23.30
2018-11-25T05:58:12.525Z,22.40
2018-11-25T05:59:12.516Z,22.50
2018-11-25T06:00:12.527Z,24.10
2018-11-25T06:01:12.490Z,24.00
2018-11-25T06:02:12.479Z,24.20
2018-11-25T06:03:12.475Z,24.00
2018-11-25T06:04:12.458Z,24.10
2018-11-25T06:05:12.447Z,23.90
2018-11-25T06:06:12.455Z,23.40
2018-11-25T06:07:12.425Z,25.50
2018-11-25T06:08:12.422Z,24.20
2018-11-25T06:09:12.413Z,25.00
2018-11-25T06:10:12.394Z,25.40
2018-11-25T06:11:12.405Z,24.30
2018-11-25T06:12:12.372Z,24.70
2018-11-25T06:13:12.362Z,25.80
2018-11-25T06:14:12.350Z,25.10
2018-11-25T06:15:12.347Z,24.90
2018-11-25T06:16:12.371Z,24.60
2018-11-25T06:17:12.319Z,25.20
2018-11-25T06:18:12.309Z,24.40
2018-11-25T06:19:12.297Z,24.70
2018-11-25T06:20:12.287Z,25.40
2018-11-25T06:21:12.294Z,25.10
2018-11-25T06:22:12.269Z,24.60
2018-11-25T06:23:12.253Z,25.70
2018-11-25T06:24:12.241Z,24.60
2018-11-25T06:25:12.229Z,24.20
2018-11-25T06:26:12.240Z,24.60
2018-11-25T06:27:12.209Z,23.80
2018-11-25T06:28:12.203Z,24.40
2018-11-25T06:29:12.192Z,25.00
2018-11-25T06:30:12.174Z,24.50
2018-11-25T06:31:12.195Z,25.00
2018-11-25T06:32:12.154Z,24.40
2018-11-25T06:33:12.144Z,23.80
2018-11-25T06:34:12.132Z,24.70
2018-11-25T06:35:12.131Z,24.70
2018-11-25T06:36:12.110Z,24.10
2018-11-25T06:37:12.117Z,24.30
2018-11-25T06:38:12.089Z,23.50
2018-11-25T06:39:12.075Z,24.20
2018-11-25T06:40:12.068Z,23.70
2018-11-25T06:41:12.062Z,21.50
2018-11-25T06:42:12.066Z,22.70
2018-11-25T06:43:12.035Z,23.50
2018-11-25T06:44:12.024Z,23.20
2018-11-25T06:45:12.009Z,21.90
2018-11-25T06:46:12.009Z,23.60
2018-11-25T06:47:12.033Z,24.20
2018-11-25T06:48:11.980Z,23.70
2018-11-25T06:49:11.971Z,23.70
2018-11-25T06:50:12.504Z,23.60
2018-11-25T06:51:11.972Z,23.80
2018-11-25T06:52:11.957Z,23.10
2018-11-25T06:53:11.924Z,23.90
2018-11-25T06:54:11.914Z,24.40
2018-11-25T06:55:11.908Z,24.90
2018-11-25T06:56:11.894Z,26.20
2018-11-25T06:57:11.895Z,24.40
2018-11-25T06:58:11.891Z,24.20
2018-11-25T06:59:11.856Z,24.60
2018-11-25T07:00:11.850Z,24.10
2018-11-25T07:01:11.846Z,24.20
2018-11-25T07:02:11.825Z,23.20
2018-11-25T07:03:11.847Z,23.60
2018-11-25T07:04:11.803Z,23.50
2018-11-25T07:05:11.790Z,24.10
2018-11-25T07:06:11.779Z,23.60
2018-11-25T07:07:11.775Z,24.10
2018-11-25T07:08:11.781Z,23.30
2018-11-25T07:09:11.754Z,23.00
2018-11-25T07:10:11.737Z,22.90
2018-11-25T07:11:11.727Z,23.70
2018-11-25T07:12:11.715Z,22.90
2018-11-25T07:13:11.732Z,24.40
2018-11-25T07:14:11.695Z,24.40
2018-11-25T07:15:11.697Z,24.90
2018-11-25T07:16:11.674Z,23.10
2018-11-25T07:17:11.663Z,22.70
2018-11-25T07:18:11.671Z,23.50
2018-11-25T07:19:11.647Z,23.00
2018-11-25T07:20:11.634Z,23.30
2018-11-25T07:21:11.618Z,22.40
2018-11-25T07:22:11.606Z,23.10
2018-11-25T07:23:11.616Z,22.70
2018-11-25T07:24:11.590Z,22.90
2018-11-25T07:25:11.577Z,23.10
2018-11-25T07:26:11.567Z,24.00
2018-11-25T07:27:11.555Z,22.60
2018-11-25T07:28:18.443Z,23.00
2018-11-25T07:29:12.532Z,23.10
2018-11-25T07:30:11.522Z,21.20
2018-11-25T07:31:11.517Z,21.00
2018-11-25T07:32:11.501Z,20.30
2018-11-25T07:33:11.559Z,20.30
2018-11-25T07:34:11.481Z,20.80
2018-11-25T07:35:11.467Z,20.00
2018-11-25T07:36:11.457Z,20.80
2018-11-25T07:37:11.452Z,20.80
2018-11-25T07:38:11.463Z,20.20
2018-11-25T07:39:11.423Z,20.30
2018-11-25T07:40:11.416Z,20.20
2018-11-25T07:41:11.403Z,21.20
2018-11-25T07:42:11.393Z,21.80
2018-11-25T07:43:19.458Z,21.50
2018-11-25T07:44:11.408Z,21.00
2018-11-25T07:45:11.459Z,21.60
2018-11-25T07:46:11.359Z,20.70
2018-11-25T07:47:11.420Z,20.70
2018-11-25T07:48:11.413Z,20.30
2018-11-25T07:49:11.325Z,21.30
2018-11-25T07:50:11.411Z,20.50
2018-11-25T07:51:11.307Z,20.00
2018-11-25T07:52:11.309Z,21.00
2018-11-25T07:53:11.300Z,19.30
2018-11-25T07:54:18.938Z,20.30
2018-11-25T07:55:18.873Z,20.70
2018-11-25T07:56:11.282Z,21.00
2018-11-25T07:57:11.232Z,20.80
2018-11-25T07:58:11.317Z,21.20
2018-11-25T07:59:11.214Z,21.60
2018-11-25T08:00:11.202Z,22.10
2018-11-25T08:01:11.269Z,23.10
2018-11-25T08:02:11.213Z,22.20
2018-11-25T08:03:19.933Z,21.30
2018-11-25T08:04:11.209Z,21.70
2018-11-25T08:05:11.174Z,22.10
2018-11-25T08:06:11.179Z,22.00
2018-11-25T08:07:11.169Z,21.40
2018-11-25T08:08:11.197Z,20.50
2018-11-25T08:09:11.107Z,22.10
2018-11-25T08:10:11.096Z,21.90
2018-11-25T08:11:11.082Z,21.30
2018-11-25T08:12:11.072Z,21.00
2018-11-25T08:13:11.078Z,22.10
2018-11-25T08:14:11.044Z,21.50
2018-11-25T08:15:18.661Z,22.50
2018-11-25T08:16:11.151Z,22.80
2018-11-25T08:17:11.065Z,23.20
2018-11-25T08:18:11.121Z,22.50
2018-11-25T08:19:18.639Z,23.20
2018-11-25T08:20:18.641Z,22.50
2018-11-25T08:21:19.632Z,23.60
2018-11-25T08:22:18.632Z,23.70
2018-11-25T08:23:11.006Z,22.90
2018-11-25T08:24:10.997Z,23.20
2018-11-25T08:25:11.046Z,23.70
2018-11-25T08:26:10.922Z,23.60
2018-11-25T08:28:29.751Z,22.70
2018-11-25T08:29:29.775Z,23.60
2018-11-25T08:30:29.690Z,25.30
2018-11-25T08:31:29.738Z,24.70
2018-11-25T08:32:29.662Z,23.90
2018-11-25T08:33:29.675Z,23.50
2018-11-25T08:34:29.697Z,23.20
2018-11-25T08:35:29.626Z,23.50
2018-11-25T08:36:29.617Z,24.10
2018-11-25T08:37:29.612Z,23.00
2018-11-25T08:38:29.620Z,23.50
2018-11-25T08:39:29.632Z,23.60
2018-11-25T08:40:29.588Z,22.70
2018-11-25T08:41:29.582Z,23.10
2018-11-25T08:42:29.561Z,24.10
2018-11-25T08:43:29.559Z,24.10
2018-11-25T08:44:29.531Z,24.20
2018-11-25T08:45:38.160Z,23.80
2018-11-25T08:46:29.521Z,23.30
2018-11-25T08:47:38.179Z,22.40
2018-11-25T08:48:39.492Z,22.70
2018-11-25T08:49:29.482Z,22.20
2018-11-25T08:50:29.579Z,21.70
2018-11-25T08:51:37.070Z,21.90
2018-11-25T08:53:47.979Z,18.90
2018-11-25T08:54:47.979Z,22.30
2018-11-25T08:55:47.909Z,21.50
2018-11-25T08:56:47.933Z,21.80
2018-11-25T08:59:04.152Z,19.20
2018-11-25T09:00:12.680Z,20.90
2018-11-25T09:01:04.080Z,21.70
2018-11-25T09:02:04.042Z,21.50
2018-11-25T09:03:04.105Z,22.00
2018-11-25T09:04:04.024Z,21.40
2018-11-25T09:05:04.021Z,21.90
2018-11-25T09:06:04.000Z,20.40
2018-11-25T09:07:04.013Z,20.60
2018-11-25T09:08:04.027Z,20.40
2018-11-25T09:09:03.973Z,21.30
2018-11-25T09:10:03.954Z,21.00
2018-11-25T09:11:03.968Z,21.40
2018-11-25T09:12:03.934Z,21.80
2018-11-25T09:13:03.981Z,20.20
2018-11-25T09:14:03.909Z,21.00
2018-11-25T09:15:03.911Z,22.50
2018-11-25T09:16:03.934Z,21.20
2018-11-25T09:17:03.875Z,21.40
2018-11-25T09:18:03.924Z,22.50
2018-11-25T09:19:03.858Z,21.60
2018-11-25T09:20:11.478Z,21.90
2018-11-25T09:21:03.844Z,22.20
2018-11-25T09:22:03.828Z,22.80
2018-11-25T09:23:03.852Z,20.80
2018-11-25T09:24:03.798Z,22.10
2018-11-25T09:25:03.780Z,22.30
2018-11-25T09:26:03.794Z,22.00
2018-11-25T09:27:03.757Z,22.40
2018-11-25T09:28:12.482Z,21.90
2018-11-25T09:29:03.798Z,22.80
2018-11-25T09:30:03.761Z,23.20
2018-11-25T09:31:03.722Z,21.90
2018-11-25T09:32:03.775Z,21.90
2018-11-25T09:33:03.729Z,23.20
2018-11-25T09:34:03.706Z,22.50
2018-11-25T09:35:03.748Z,23.10
2018-11-25T09:36:03.733Z,23.20
2018-11-25T09:37:03.652Z,22.50
2018-11-25T09:38:03.662Z,22.80
2018-11-25T09:39:03.698Z,23.10
2018-11-25T09:40:03.639Z,22.90
2018-11-25T09:41:03.647Z,23.00
2018-11-25T09:42:03.611Z,23.50
2018-11-25T09:43:03.668Z,23.50
2018-11-25T09:44:03.652Z,23.80
2018-11-25T09:45:03.587Z,23.60
2018-11-25T09:46:03.613Z,23.40
2018-11-25T09:47:03.572Z,23.90
2018-11-25T09:48:03.533Z,24.40
2018-11-25T09:49:03.528Z,24.30
2018-11-25T09:50:03.599Z,24.20
2018-11-25T09:51:03.506Z,24.80
2018-11-25T09:52:03.492Z,25.30
2018-11-25T09:53:03.481Z,24.00
2018-11-25T09:54:03.475Z,25.10
2018-11-25T09:55:03.457Z,25.20
2018-11-25T09:56:03.580Z,24.70
2018-11-25T09:57:03.443Z,26.70
2018-11-25T09:58:03.433Z,25.90
2018-11-25T09:59:03.417Z,26.40
2018-11-25T10:00:03.406Z,25.50
2018-11-25T10:01:03.415Z,25.20
2018-11-25T10:02:03.388Z,24.10
2018-11-25T10:03:03.381Z,24.40
2018-11-25T10:04:03.376Z,25.40
2018-11-25T10:05:03.387Z,24.00
2018-11-25T10:06:03.447Z,25.50
2018-11-25T10:07:03.345Z,24.40
2018-11-25T10:08:03.373Z,23.90
2018-11-25T10:09:03.335Z,25.80
2018-11-25T10:10:03.334Z,25.40
2018-11-25T10:11:03.415Z,26.90
2018-11-25T10:12:03.305Z,25.90
2018-11-25T10:13:03.372Z,25.80
2018-11-25T10:14:03.274Z,24.70
2018-11-25T10:15:03.262Z,24.60
2018-11-25T10:16:03.280Z,24.80
2018-11-25T10:17:03.273Z,27.00
2018-11-25T10:18:03.230Z,25.10
2018-11-25T10:19:03.285Z,25.20
2018-11-25T10:20:03.197Z,25.60
2018-11-25T10:21:13.016Z,24.50
2018-11-25T10:22:03.195Z,27.00
2018-11-25T10:23:03.211Z,24.90
2018-11-25T10:24:03.151Z,25.80
2018-11-25T10:25:03.162Z,26.20
2018-11-25T10:26:03.175Z,25.50
2018-11-25T10:27:10.737Z,25.60
2018-11-25T10:28:03.121Z,26.30
2018-11-25T10:29:03.116Z,24.40
2018-11-25T10:30:03.106Z,26.00
2018-11-25T10:31:03.186Z,26.00
2018-11-25T10:32:03.124Z,26.90
2018-11-25T10:33:03.069Z,26.90
2018-11-25T10:34:03.050Z,25.90
2018-11-25T10:35:03.100Z,26.00
2018-11-25T10:36:04.629Z,27.20
2018-11-25T10:37:03.011Z,26.00
2018-11-25T10:38:03.003Z,28.80
2018-11-25T10:39:03.029Z,27.80
2018-11-25T10:40:02.985Z,27.20
2018-11-25T10:41:02.994Z,27.10
2018-11-25T10:42:02.964Z,27.90
2018-11-25T10:43:02.976Z,28.70
2018-11-25T10:44:02.948Z,28.70
2018-11-25T10:45:02.946Z,29.10
2018-11-25T10:46:02.948Z,30.20
2018-11-25T10:47:02.922Z,29.70
2018-11-25T10:48:02.914Z,29.80
2018-11-25T10:49:02.895Z,30.10
2018-11-25T10:50:02.908Z,27.90
2018-11-25T10:51:02.882Z,31.20
2018-11-25T10:52:02.856Z,29.00
2018-11-25T10:53:02.850Z,30.10
2018-11-25T10:54:02.839Z,28.90
2018-11-25T10:55:02.819Z,29.60
2018-11-25T10:56:02.852Z,30.20
2018-11-25T10:57:02.799Z,28.80
2018-11-25T10:58:02.792Z,28.50
2018-11-25T10:59:02.780Z,28.10
2018-11-25T11:00:02.767Z,28.00
2018-11-25T11:01:02.770Z,28.10
2018-11-25T11:02:02.778Z,29.20
2018-11-25T11:04:19.186Z,29.30
2018-11-25T11:05:19.104Z,29.10
2018-11-25T11:06:19.001Z,28.20
2018-11-25T11:07:27.766Z,29.60
2018-11-25T11:08:18.916Z,30.70
2018-11-25T11:09:18.898Z,29.50
2018-11-25T11:10:18.890Z,28.40
2018-11-25T11:11:18.887Z,28.50
2018-11-25T11:12:18.872Z,28.00
2018-11-25T11:13:18.915Z,28.50
2018-11-25T11:14:18.849Z,29.70
2018-11-25T11:15:18.835Z,30.50
2018-11-25T11:16:18.823Z,29.80
2018-11-25T11:17:18.832Z,29.10
2018-11-25T11:18:18.826Z,30.20
2018-11-25T11:19:18.794Z,28.30
2018-11-25T11:20:18.790Z,29.80
2018-11-25T11:21:18.772Z,29.70
2018-11-25T11:22:18.768Z,29.10
2018-11-25T11:23:18.776Z,29.50
2018-11-25T11:24:18.747Z,28.80
2018-11-25T11:25:18.750Z,29.90
2018-11-25T11:26:18.714Z,30.00
2018-11-25T11:27:18.718Z,29.30
2018-11-25T11:28:18.733Z,28.10
2018-11-25T11:29:18.681Z,28.50
2018-11-25T11:30:18.672Z,29.00
2018-11-25T11:31:18.671Z,30.80
2018-11-25T11:32:18.650Z,29.10
2018-11-25T11:33:18.642Z,29.90
2018-11-25T11:34:18.646Z,28.90
2018-11-25T11:35:18.619Z,29.50
2018-11-25T11:36:18.645Z,29.70
2018-11-25T11:37:18.596Z,30.90
2018-11-25T11:38:18.586Z,30.30
2018-11-25T11:39:18.590Z,31.20
2018-11-25T11:40:18.569Z,30.10
2018-11-25T11:41:18.553Z,28.10
2018-11-25T11:42:18.565Z,30.90
2018-11-25T11:43:18.554Z,30.20
2018-11-25T11:44:18.522Z,28.80
2018-11-25T11:45:18.521Z,30.10
2018-11-25T11:46:18.504Z,29.50
2018-11-25T11:47:18.486Z,30.90
2018-11-25T11:48:18.494Z,30.20
2018-11-25T11:49:18.482Z,29.80
2018-11-25T11:50:18.459Z,29.00
2018-11-25T11:51:25.316Z,29.90
2018-11-25T11:52:19.428Z,29.30
2018-11-25T11:53:18.426Z,29.50
2018-11-25T11:54:18.454Z,29.90
2018-11-25T11:55:18.405Z,30.10
2018-11-25T11:56:18.389Z,31.60
2018-11-25T11:57:18.379Z,30.40
2018-11-25T11:58:18.368Z,29.00
2018-11-25T11:59:18.377Z,28.70
2018-11-25T12:00:18.358Z,29.10
2018-11-25T12:01:18.336Z,28.50
2018-11-25T12:02:31.495Z,31.00
2018-11-25T12:03:26.116Z,31.80
2018-11-25T12:04:19.319Z,29.80
2018-11-25T12:05:18.298Z,30.10
2018-11-25T12:06:18.287Z,29.70
2018-11-25T12:07:18.283Z,30.50
2018-11-25T12:08:18.256Z,29.80
2018-11-25T12:09:18.271Z,30.20
2018-11-25T12:10:18.291Z,29.30
2018-11-25T12:11:18.242Z,30.80
2018-11-25T12:12:18.216Z,30.40
2018-11-25T12:13:18.206Z,30.30
2018-11-25T12:14:18.207Z,29.80
2018-11-25T12:15:18.181Z,30.60
2018-11-25T12:16:18.232Z,31.00
2018-11-25T12:17:18.161Z,31.20
2018-11-25T12:18:18.149Z,31.00
2018-11-25T12:19:18.163Z,31.50
2018-11-25T12:20:21.184Z,30.80
2018-11-25T12:21:18.118Z,31.20
2018-11-25T12:22:18.110Z,31.70
2018-11-25T12:23:18.100Z,31.70
2018-11-25T12:24:18.085Z,32.00
2018-11-25T12:25:18.097Z,32.90
2018-11-25T12:26:18.095Z,31.10
2018-11-25T12:27:18.066Z,30.30
2018-11-25T12:28:18.045Z,31.10
2018-11-25T12:29:18.031Z,31.10
2018-11-25T12:30:18.053Z,30.50
2018-11-25T12:31:18.008Z,31.40
2018-11-25T12:32:17.998Z,31.90
2018-11-25T12:33:17.995Z,32.50
2018-11-25T12:34:17.976Z,32.90
2018-11-25T12:35:17.997Z,32.10
2018-11-25T12:36:17.954Z,31.50
2018-11-25T12:37:17.952Z,29.20
2018-11-25T12:38:17.935Z,29.10
2018-11-25T12:39:17.924Z,29.60
2018-11-25T12:40:17.931Z,29.60
2018-11-25T12:41:17.899Z,29.10
2018-11-25T12:42:17.892Z,30.30
2018-11-25T12:43:17.893Z,29.80
2018-11-25T12:44:17.870Z,28.00
2018-11-25T12:45:17.871Z,28.60
2018-11-25T12:46:25.400Z,28.80
2018-11-25T12:47:25.377Z,30.30
2018-11-25T12:48:17.824Z,30.20
2018-11-25T12:49:25.393Z,29.80
2018-11-25T12:50:27.359Z,29.30
2018-11-25T12:51:17.787Z,29.90
2018-11-25T12:52:25.336Z,30.20
2018-11-25T12:53:17.767Z,30.30
2018-11-25T12:54:17.755Z,31.00
2018-11-25T12:55:17.778Z,29.30
2018-11-25T12:56:25.306Z,30.20
2018-11-25T12:57:17.723Z,31.50